Big Rock, Iowa
Current Conditions -  °F | °C
As of 5:52 AM on Friday 28 Nov 2014 (Local Time) from KDVN Reporting Station
Overcast Overcast  
Wind Chill:   Ceiling: 12000
Heat Index: 17°   Visibility: 10mi
Dew Point:   Wind: 16mph
Humidity: 68%   Direction: 140°SE
Pressure: 30.21"   Gusts: NA
Location:  41.7085°N, 90.7516°W
Report Text: KDVN 281152Z AUTO 14014KT 10SM OVC120 M08/M13 A3021 RMK AO2 SLP244 60000 T10831133 11083 21106 56035 FZRANO $
Loading
Personal Weather Stations






























Interactive Weather Map New forecast layout! Learn more

10-Day Weather Forecast

Advertisements
Track Severe Weather on mobile